createdAt,value
2018-09-09T00:02:08.134Z,99.90
2018-09-09T00:05:17.302Z,99.90
2018-09-09T00:08:26.642Z,99.90
2018-09-09T00:11:36.021Z,99.90
2018-09-09T00:14:45.382Z,99.90
2018-09-09T00:17:54.706Z,99.90
2018-09-09T00:21:04.081Z,99.90
2018-09-09T00:24:13.791Z,99.90
2018-09-09T00:27:22.906Z,99.90
2018-09-09T00:30:32.149Z,99.90
2018-09-09T00:33:41.585Z,99.90
2018-09-09T00:36:51.122Z,99.90
2018-09-09T00:40:00.462Z,99.90
2018-09-09T00:43:09.897Z,99.90
2018-09-09T00:46:19.901Z,99.90
2018-09-09T00:49:34.549Z,99.90
2018-09-09T00:52:49.121Z,99.90
2018-09-09T00:55:58.302Z,99.90
2018-09-09T00:59:07.557Z,99.90
2018-09-09T01:02:16.975Z,99.90
2018-09-09T01:05:26.865Z,99.90
2018-09-09T01:08:36.035Z,99.90
2018-09-09T01:11:45.295Z,99.90
2018-09-09T01:14:54.413Z,99.90
2018-09-09T01:18:03.857Z,99.90
2018-09-09T01:21:13.191Z,99.90
2018-09-09T01:24:22.622Z,99.90
2018-09-09T01:27:31.713Z,99.90
2018-09-09T01:30:41.158Z,99.90
2018-09-09T01:33:50.479Z,99.90
2018-09-09T01:36:59.845Z,99.90
2018-09-09T01:40:09.105Z,99.90
2018-09-09T01:43:18.397Z,99.90
2018-09-09T01:46:27.561Z,99.90
2018-09-09T01:49:37.017Z,99.90
2018-09-09T01:52:46.279Z,99.90
2018-09-09T01:55:55.688Z,99.90
2018-09-09T01:59:04.873Z,99.90
2018-09-09T02:02:14.153Z,99.90
2018-09-09T02:05:23.489Z,99.90
2018-09-09T02:08:32.775Z,99.90
2018-09-09T02:11:42.040Z,99.90
2018-09-09T02:14:51.397Z,99.90
2018-09-09T02:18:00.734Z,99.90
2018-09-09T02:21:10.017Z,99.90
2018-09-09T02:24:19.405Z,99.90
2018-09-09T02:27:28.622Z,99.90
2018-09-09T02:30:38.090Z,99.90
2018-09-09T02:33:47.495Z,99.90
2018-09-09T02:36:56.904Z,99.90
2018-09-09T02:40:06.155Z,99.90
2018-09-09T02:43:15.302Z,99.90
2018-09-09T02:46:24.723Z,99.90
2018-09-09T02:49:33.805Z,99.90
2018-09-09T02:52:43.486Z,99.90
2018-09-09T02:55:52.644Z,99.90
2018-09-09T02:59:02.690Z,99.90
2018-09-09T03:02:12.066Z,99.90
2018-09-09T03:05:21.286Z,99.90
2018-09-09T03:08:30.943Z,99.90
2018-09-09T03:11:40.218Z,99.90
2018-09-09T03:14:49.311Z,99.90
2018-09-09T03:17:58.614Z,99.90
2018-09-09T03:21:07.879Z,99.90
2018-09-09T03:24:17.078Z,99.90
2018-09-09T03:27:26.372Z,99.90
2018-09-09T03:30:35.644Z,99.90
2018-09-09T03:33:45.818Z,99.90
2018-09-09T03:36:55.192Z,99.90
2018-09-09T03:40:04.354Z,99.90
2018-09-09T03:43:13.627Z,99.90
2018-09-09T03:46:22.974Z,99.90
2018-09-09T03:49:32.707Z,99.90
2018-09-09T03:52:42.071Z,99.90
2018-09-09T03:55:52.160Z,99.90
2018-09-09T03:59:01.552Z,99.90
2018-09-09T04:02:10.761Z,99.90
2018-09-09T04:05:20.023Z,99.90
2018-09-09T04:08:29.298Z,99.90
2018-09-09T04:11:38.564Z,99.90
2018-09-09T04:14:47.657Z,99.90
2018-09-09T04:17:56.839Z,99.90
2018-09-09T04:21:06.093Z,99.90
2018-09-09T04:24:15.414Z,99.90
2018-09-09T04:27:24.617Z,99.90
2018-09-09T04:30:33.970Z,99.90
2018-09-09T04:33:43.263Z,99.90
2018-09-09T04:36:52.646Z,99.90
2018-09-09T04:40:01.981Z,99.90
2018-09-09T04:43:11.145Z,99.90
2018-09-09T04:46:20.426Z,99.90
2018-09-09T04:49:29.681Z,99.90
2018-09-09T04:52:38.861Z,99.90
2018-09-09T04:55:48.259Z,99.90
2018-09-09T04:58:57.495Z,99.90
2018-09-09T05:02:06.682Z,99.90
2018-09-09T05:05:15.757Z,99.90
2018-09-09T05:08:25.091Z,99.90
2018-09-09T05:11:34.386Z,99.90
2018-09-09T05:14:43.506Z,99.90
2018-09-09T05:17:52.781Z,99.90
2018-09-09T05:21:02.221Z,99.90
2018-09-09T05:24:11.454Z,99.90
2018-09-09T05:27:20.798Z,99.90
2018-09-09T05:30:29.926Z,99.90
2018-09-09T05:33:39.167Z,99.90
2018-09-09T05:36:48.484Z,99.90
2018-09-09T05:39:57.807Z,99.90
2018-09-09T05:43:07.189Z,99.90
2018-09-09T05:46:16.503Z,99.90
2018-09-09T05:49:25.797Z,99.90
2018-09-09T05:52:35.095Z,99.90
2018-09-09T05:55:44.420Z,99.90
2018-09-09T05:58:53.689Z,99.90
2018-09-09T06:02:03.006Z,99.90
2018-09-09T06:05:12.141Z,99.90
2018-09-09T06:08:21.455Z,99.90
2018-09-09T06:11:30.895Z,99.90
2018-09-09T06:14:40.137Z,99.90
2018-09-09T06:17:49.509Z,99.90
2018-09-09T06:20:58.790Z,99.90
2018-09-09T06:24:08.021Z,99.90
2018-09-09T06:27:17.212Z,99.90
2018-09-09T06:30:26.317Z,99.90
2018-09-09T06:33:35.706Z,99.90
2018-09-09T06:36:45.170Z,99.90
2018-09-09T06:39:54.401Z,99.90
2018-09-09T06:43:03.751Z,99.90
2018-09-09T06:46:12.992Z,99.90
2018-09-09T06:49:22.320Z,99.90
2018-09-09T06:52:31.737Z,99.90
2018-09-09T06:55:41.073Z,99.90
2018-09-09T06:58:50.349Z,99.90
2018-09-09T07:01:59.542Z,99.90
2018-09-09T07:05:08.759Z,99.90
2018-09-09T07:08:17.932Z,99.90
2018-09-09T07:11:27.434Z,99.90
2018-09-09T07:14:36.547Z,99.90
2018-09-09T07:17:45.823Z,99.90
2018-09-09T07:20:55.216Z,99.90
2018-09-09T07:24:04.437Z,99.90
2018-09-09T07:27:13.786Z,99.90
2018-09-09T07:30:23.194Z,99.90
2018-09-09T07:33:32.532Z,99.90
2018-09-09T07:36:41.797Z,99.20
2018-09-09T07:39:51.062Z,98.40
2018-09-09T07:43:00.173Z,97.30
2018-09-09T07:46:09.538Z,96.50
2018-09-09T07:49:18.694Z,95.20
2018-09-09T07:52:34.869Z,94.80
2018-09-09T07:55:44.259Z,93.80
2018-09-09T07:58:53.590Z,94.00
2018-09-09T08:02:02.787Z,94.00
2018-09-09T08:05:12.095Z,92.90
2018-09-09T08:08:28.256Z,92.60
2018-09-09T08:11:38.566Z,91.90
2018-09-09T08:14:47.785Z,91.60
2018-09-09T08:17:57.236Z,90.80
2018-09-09T08:21:06.489Z,89.60
2018-09-09T08:24:15.675Z,88.60
2018-09-09T08:27:24.985Z,87.80
2018-09-09T08:30:34.275Z,88.20
2018-09-09T08:33:43.610Z,87.70
2018-09-09T08:36:52.837Z,87.00
2018-09-09T08:40:02.189Z,86.10
2018-09-09T08:43:11.411Z,83.00
2018-09-09T08:46:21.497Z,85.10
2018-09-09T08:49:30.760Z,84.80
2018-09-09T08:52:40.139Z,81.00
2018-09-09T08:55:49.232Z,80.40
2018-09-09T08:58:58.465Z,79.90
2018-09-09T09:02:07.684Z,79.70
2018-09-09T09:05:16.980Z,79.20
2018-09-09T09:08:26.170Z,79.30
2018-09-09T09:11:35.321Z,79.00
2018-09-09T09:14:44.672Z,79.50
2018-09-09T09:17:53.893Z,79.40
2018-09-09T09:21:03.291Z,76.20
2018-09-09T09:24:12.544Z,77.90
2018-09-09T09:27:21.686Z,78.80
2018-09-09T09:30:30.925Z,77.70
2018-09-09T09:33:40.074Z,77.10
2018-09-09T09:36:49.190Z,77.00
2018-09-09T09:39:58.357Z,78.00
2018-09-09T09:43:07.630Z,77.60
2018-09-09T09:46:17.068Z,77.10
2018-09-09T09:49:26.393Z,79.00
2018-09-09T09:52:35.572Z,75.80
2018-09-09T09:55:44.966Z,78.20
2018-09-09T09:58:54.267Z,75.10
2018-09-09T10:02:03.727Z,74.40
2018-09-09T10:05:13.021Z,75.40
2018-09-09T10:08:22.570Z,75.00
2018-09-09T10:11:32.009Z,74.90
2018-09-09T10:14:41.329Z,74.30
2018-09-09T10:17:50.648Z,74.80
2018-09-09T10:20:59.792Z,75.10
2018-09-09T10:24:09.130Z,74.20
2018-09-09T10:27:18.393Z,73.70
2018-09-09T10:30:27.705Z,74.20
2018-09-09T10:33:37.157Z,75.30
2018-09-09T10:36:46.423Z,76.60
2018-09-09T10:39:55.809Z,74.40
2018-09-09T10:43:05.232Z,74.00
2018-09-09T10:46:14.557Z,73.10
2018-09-09T10:49:23.868Z,73.70
2018-09-09T10:52:33.171Z,73.70
2018-09-09T10:55:42.417Z,74.60
2018-09-09T10:58:51.863Z,74.90
2018-09-09T11:02:01.239Z,74.80
2018-09-09T11:05:11.072Z,74.40
2018-09-09T11:08:20.529Z,74.00
2018-09-09T11:11:29.783Z,74.20
2018-09-09T11:14:38.989Z,74.20
2018-09-09T11:17:48.362Z,73.10
2018-09-09T11:20:57.708Z,73.20
2018-09-09T11:24:07.224Z,74.40
2018-09-09T11:27:16.572Z,73.70
2018-09-09T11:30:25.901Z,72.50
2018-09-09T11:33:35.148Z,71.80
2018-09-09T11:36:44.519Z,71.60
2018-09-09T11:39:53.918Z,71.60
2018-09-09T11:43:03.171Z,72.20
2018-09-09T11:46:12.599Z,72.10
2018-09-09T11:49:21.935Z,72.30
2018-09-09T11:52:31.597Z,71.70
2018-09-09T11:55:41.064Z,71.80
2018-09-09T11:58:50.346Z,71.10
2018-09-09T12:01:59.602Z,70.50
2018-09-09T12:05:08.856Z,70.50
2018-09-09T12:08:18.130Z,71.00
2018-09-09T12:11:27.641Z,71.20
2018-09-09T12:14:36.952Z,70.90
2018-09-09T12:17:46.191Z,69.70
2018-09-09T12:20:55.277Z,69.60
2018-09-09T12:24:04.355Z,69.80
2018-09-09T12:27:14.374Z,69.30
2018-09-09T12:30:23.705Z,69.60
2018-09-09T12:33:32.862Z,69.40
2018-09-09T12:36:42.106Z,70.40
2018-09-09T12:39:51.460Z,70.60
2018-09-09T12:43:06.262Z,71.10
2018-09-09T12:46:20.810Z,71.30
2018-09-09T12:49:30.184Z,70.60
2018-09-09T12:52:40.175Z,70.70
2018-09-09T12:55:49.576Z,70.20
2018-09-09T12:58:59.090Z,70.80
2018-09-09T13:02:08.550Z,69.30
2018-09-09T13:05:17.870Z,68.20
2018-09-09T13:08:28.125Z,67.60
2018-09-09T13:11:37.434Z,66.90
2018-09-09T13:14:46.673Z,66.20
2018-09-09T13:17:55.816Z,66.40
2018-09-09T13:21:04.997Z,67.90
2018-09-09T13:24:14.181Z,68.40
2018-09-09T13:27:23.335Z,68.60
2018-09-09T13:30:32.742Z,68.40
2018-09-09T13:33:41.957Z,68.50
2018-09-09T13:36:51.184Z,68.10
2018-09-09T13:40:00.369Z,68.00
2018-09-09T13:43:09.629Z,67.90
2018-09-09T13:46:18.819Z,67.70
2018-09-09T13:49:27.971Z,67.80
2018-09-09T13:52:37.293Z,68.20
2018-09-09T13:55:46.749Z,68.20
2018-09-09T13:58:55.901Z,68.40
2018-09-09T14:02:05.101Z,68.60
2018-09-09T14:05:14.537Z,68.10
2018-09-09T14:08:23.873Z,69.40
2018-09-09T14:11:33.215Z,68.50
2018-09-09T14:14:42.645Z,69.10
2018-09-09T14:17:51.888Z,69.30
2018-09-09T14:21:01.138Z,68.10
2018-09-09T14:24:10.465Z,68.40
2018-09-09T14:27:19.843Z,69.50
2018-09-09T14:30:29.214Z,69.40
2018-09-09T14:33:38.539Z,69.60
2018-09-09T14:36:47.785Z,68.60
2018-09-09T14:39:56.974Z,68.70
2018-09-09T14:43:06.461Z,68.90
2018-09-09T14:46:15.655Z,68.20
2018-09-09T14:49:24.947Z,70.40
2018-09-09T14:52:34.274Z,69.60
2018-09-09T14:55:43.565Z,70.10
2018-09-09T14:58:53.101Z,69.60
2018-09-09T15:02:02.482Z,69.70
2018-09-09T15:05:11.677Z,70.10
2018-09-09T15:08:20.854Z,69.80
2018-09-09T15:11:30.260Z,70.20
2018-09-09T15:14:39.446Z,70.00
2018-09-09T15:17:48.855Z,69.80
2018-09-09T15:20:58.077Z,70.00
2018-09-09T15:24:07.313Z,69.90
2018-09-09T15:27:16.675Z,70.10
2018-09-09T15:30:25.949Z,69.80
2018-09-09T15:33:35.166Z,70.20
2018-09-09T15:36:44.457Z,69.40
2018-09-09T15:39:53.910Z,70.00
2018-09-09T15:43:03.103Z,69.60
2018-09-09T15:46:12.380Z,70.00
2018-09-09T15:49:21.593Z,70.00
2018-09-09T15:52:30.993Z,70.30
2018-09-09T15:55:40.169Z,69.90
2018-09-09T15:58:49.619Z,70.90
2018-09-09T16:01:58.707Z,70.70
2018-09-09T16:05:08.410Z,70.50
2018-09-09T16:08:17.879Z,71.40
2018-09-09T16:11:27.215Z,71.00
2018-09-09T16:14:36.323Z,71.60
2018-09-09T16:17:45.587Z,71.00
2018-09-09T16:20:54.739Z,70.90
2018-09-09T16:24:04.008Z,71.30
2018-09-09T16:27:13.423Z,71.10
2018-09-09T16:30:22.763Z,71.40
2018-09-09T16:33:32.263Z,71.20
2018-09-09T16:36:41.598Z,72.00
2018-09-09T16:39:50.851Z,71.70
2018-09-09T16:43:00.027Z,71.90
2018-09-09T16:46:09.683Z,72.30
2018-09-09T16:49:19.844Z,72.80
2018-09-09T16:52:29.096Z,72.60
2018-09-09T16:55:38.465Z,73.20
2018-09-09T16:58:47.637Z,73.10
2018-09-09T17:01:56.867Z,73.60
2018-09-09T17:05:06.207Z,74.20
2018-09-09T17:08:15.408Z,74.60
2018-09-09T17:11:24.669Z,75.30
2018-09-09T17:14:34.031Z,75.20
2018-09-09T17:17:44.058Z,75.80
2018-09-09T17:20:53.431Z,76.30
2018-09-09T17:24:02.662Z,76.50
2018-09-09T17:27:11.954Z,77.30
2018-09-09T17:30:21.166Z,77.70
2018-09-09T17:33:30.459Z,78.20
2018-09-09T17:36:39.839Z,78.90
2018-09-09T17:39:48.993Z,79.90
2018-09-09T17:42:58.264Z,80.00
2018-09-09T17:46:07.604Z,80.60
2018-09-09T17:49:16.793Z,81.10
2018-09-09T17:52:26.095Z,81.80
2018-09-09T17:55:35.219Z,82.10
2018-09-09T17:58:44.594Z,82.40
2018-09-09T18:01:53.772Z,82.80
2018-09-09T18:05:02.950Z,83.70
2018-09-09T18:08:12.445Z,83.90
2018-09-09T18:11:21.705Z,84.30
2018-09-09T18:14:30.963Z,85.10
2018-09-09T18:17:40.558Z,86.00
2018-09-09T18:20:49.686Z,86.80
2018-09-09T18:23:58.912Z,88.00
2018-09-09T18:27:08.359Z,88.00
2018-09-09T18:30:17.479Z,87.60
2018-09-09T18:33:26.851Z,88.50
2018-09-09T18:36:36.215Z,88.70
2018-09-09T18:39:45.945Z,89.40
2018-09-09T18:42:55.206Z,90.00
2018-09-09T18:46:04.414Z,90.00
2018-09-09T18:49:13.580Z,90.30
2018-09-09T18:52:22.732Z,90.50
2018-09-09T18:55:32.110Z,90.50
2018-09-09T18:58:41.908Z,90.70
2018-09-09T19:01:51.306Z,91.10
2018-09-09T19:05:01.307Z,91.10
2018-09-09T19:08:10.562Z,91.20
2018-09-09T19:11:19.935Z,91.20
2018-09-09T19:14:29.219Z,91.60
2018-09-09T19:17:38.508Z,91.40
2018-09-09T19:20:47.933Z,91.50
2018-09-09T19:23:57.378Z,91.60
2018-09-09T19:27:06.576Z,91.80
2018-09-09T19:30:16.003Z,91.80
2018-09-09T19:33:25.279Z,91.80
2018-09-09T19:36:34.697Z,92.00
2018-09-09T19:39:44.059Z,92.00
2018-09-09T19:42:53.269Z,92.20
2018-09-09T19:46:02.721Z,92.50
2018-09-09T19:49:11.914Z,92.90
2018-09-09T19:52:21.195Z,93.20
2018-09-09T19:55:30.310Z,93.30
2018-09-09T19:58:39.493Z,93.60
2018-09-09T20:01:48.629Z,93.80
2018-09-09T20:04:57.838Z,93.50
2018-09-09T20:08:07.049Z,93.70
2018-09-09T20:11:16.534Z,93.90
2018-09-09T20:14:25.632Z,93.60
2018-09-09T20:17:34.943Z,94.10
2018-09-09T20:20:44.109Z,94.20
2018-09-09T20:23:53.384Z,93.90
2018-09-09T20:27:02.681Z,94.00
2018-09-09T20:30:12.006Z,92.90
2018-09-09T20:33:21.394Z,92.80
2018-09-09T20:36:30.802Z,92.70
2018-09-09T20:39:40.062Z,92.50
2018-09-09T20:42:49.567Z,93.30
2018-09-09T20:45:58.817Z,92.50
2018-09-09T20:49:08.232Z,93.50
2018-09-09T20:52:17.557Z,93.10
2018-09-09T20:55:26.795Z,93.60
2018-09-09T20:58:36.206Z,93.40
2018-09-09T21:01:45.793Z,94.30
2018-09-09T21:04:54.937Z,94.40
2018-09-09T21:08:04.188Z,94.50
2018-09-09T21:11:13.402Z,94.40
2018-09-09T21:14:22.597Z,94.50
2018-09-09T21:17:32.239Z,94.60
2018-09-09T21:20:41.434Z,94.90
2018-09-09T21:23:50.723Z,95.00
2018-09-09T21:26:59.909Z,94.90
2018-09-09T21:30:09.910Z,94.60
2018-09-09T21:33:20.080Z,94.70
2018-09-09T21:36:29.197Z,94.90
2018-09-09T21:39:38.594Z,95.20
2018-09-09T21:42:48.367Z,95.20
2018-09-09T21:45:57.697Z,95.40
2018-09-09T21:49:07.144Z,95.40
2018-09-09T21:52:16.312Z,95.70
2018-09-09T21:55:25.654Z,95.30
2018-09-09T21:58:34.786Z,95.20
2018-09-09T22:01:49.330Z,95.10
2018-09-09T22:04:58.496Z,95.40
2018-09-09T22:08:07.645Z,95.50
2018-09-09T22:11:16.901Z,95.60
2018-09-09T22:14:26.132Z,95.80
2018-09-09T22:17:35.516Z,96.00
2018-09-09T22:20:44.675Z,96.40
2018-09-09T22:23:53.838Z,96.60
2018-09-09T22:27:03.268Z,96.80
2018-09-09T22:30:12.454Z,97.10
2018-09-09T22:33:21.809Z,97.10
2018-09-09T22:36:31.075Z,97.20
2018-09-09T22:39:40.259Z,97.20
2018-09-09T22:42:49.601Z,97.30
2018-09-09T22:45:59.553Z,97.40
2018-09-09T22:49:08.718Z,97.40
2018-09-09T22:52:17.851Z,97.60
2018-09-09T22:55:26.996Z,97.60
2018-09-09T22:58:36.882Z,97.70
2018-09-09T23:01:46.200Z,97.90
2018-09-09T23:04:55.466Z,98.00
2018-09-09T23:08:04.770Z,98.30
2018-09-09T23:11:14.002Z,98.40
2018-09-09T23:14:23.200Z,98.30
2018-09-09T23:17:32.658Z,98.50
2018-09-09T23:20:41.827Z,99.10
2018-09-09T23:23:51.011Z,98.70
2018-09-09T23:27:00.173Z,98.70
2018-09-09T23:30:09.495Z,98.50
2018-09-09T23:33:19.120Z,98.80
2018-09-09T23:36:28.353Z,98.90
2018-09-09T23:39:37.485Z,99.50
2018-09-09T23:42:47.578Z,99.80
2018-09-09T23:45:56.878Z,99.90
2018-09-09T23:49:06.109Z,99.90
2018-09-09T23:52:15.357Z,99.90
2018-09-09T23:55:24.568Z,99.70
2018-09-09T23:58:33.830Z,99.70
